sensor_id;sensor_type;location;lat;lon;timestamp;pressure;altitude;pressure_sealevel;temperature;humidity
19783;BME280;10051;40.294;-3.754;2022-10-22T00:01:00;94244.56;;;16.42;95.25
19783;BME280;10051;40.294;-3.754;2022-10-22T00:03:26;94272.03;;;16.64;95.75
19783;BME280;10051;40.294;-3.754;2022-10-22T00:05:51;94247.03;;;16.47;95.24
19783;BME280;10051;40.294;-3.754;2022-10-22T00:08:16;94282.31;;;16.65;96.08
19783;BME280;10051;40.294;-3.754;2022-10-22T00:10:42;94266.09;;;16.58;96.32
19783;BME280;10051;40.294;-3.754;2022-10-22T00:13:09;94253.78;;;16.45;96.82
19783;BME280;10051;40.294;-3.754;2022-10-22T00:15:35;94276.88;;;16.53;97.47
19783;BME280;10051;40.294;-3.754;2022-10-22T00:18:01;94207.56;;;16.02;97.81
19783;BME280;10051;40.294;-3.754;2022-10-22T00:20:26;94223.66;;;16.14;98.49
19783;BME280;10051;40.294;-3.754;2022-10-22T00:22:52;94200.84;;;15.96;98.55
19783;BME280;10051;40.294;-3.754;2022-10-22T00:25:17;94272.47;;;16.57;98.13
19783;BME280;10051;40.294;-3.754;2022-10-22T00:27:43;94228.81;;;16.19;98.59
19783;BME280;10051;40.294;-3.754;2022-10-22T00:30:08;94240.03;;;16.34;98.60
19783;BME280;10051;40.294;-3.754;2022-10-22T00:32:34;94250.47;;;16.39;99.21
19783;BME280;10051;40.294;-3.754;2022-10-22T00:35:00;94251.13;;;16.45;98.99
19783;BME280;10051;40.294;-3.754;2022-10-22T00:37:25;94196.03;;;16.07;99.65
19783;BME280;10051;40.294;-3.754;2022-10-22T00:39:51;94231.13;;;16.21;99.77
19783;BME280;10051;40.294;-3.754;2022-10-22T00:42:24;94233.34;;;16.28;100.00
19783;BME280;10051;40.294;-3.754;2022-10-22T00:47:56;94259.56;;;16.47;100.00
19783;BME280;10051;40.294;-3.754;2022-10-22T00:50:37;94251.59;;;16.29;99.99
19783;BME280;10051;40.294;-3.754;2022-10-22T00:53:07;94191.81;;;15.97;100.00
19783;BME280;10051;40.294;-3.754;2022-10-22T00:55:34;94225.22;;;16.15;100.00
19783;BME280;10051;40.294;-3.754;2022-10-22T00:58:00;94186.84;;;15.95;100.00
19783;BME280;10051;40.294;-3.754;2022-10-22T01:00:26;94242.22;;;16.41;100.00
19783;BME280;10051;40.294;-3.754;2022-10-22T01:02:52;94191.03;;;16.14;99.58
19783;BME280;10051;40.294;-3.754;2022-10-22T01:05:19;94232.53;;;16.27;99.95
19783;BME280;10051;40.294;-3.754;2022-10-22T01:07:50;94233.94;;;16.33;100.00
19783;BME280;10051;40.294;-3.754;2022-10-22T01:13:42;94231.28;;;16.33;100.00
19783;BME280;10051;40.294;-3.754;2022-10-22T01:16:10;94239.41;;;16.28;100.00
19783;BME280;10051;40.294;-3.754;2022-10-22T01:19:02;94185.28;;;15.94;100.00
19783;BME280;10051;40.294;-3.754;2022-10-22T01:21:38;94225.34;;;16.19;100.00
19783;BME280;10051;40.294;-3.754;2022-10-22T01:29:46;94244.25;;;16.26;100.00
19783;BME280;10051;40.294;-3.754;2022-10-22T01:32:18;94193.38;;;15.98;100.00
19783;BME280;10051;40.294;-3.754;2022-10-22T01:34:49;94197.28;;;16.00;100.00
19783;BME280;10051;40.294;-3.754;2022-10-22T01:37:16;94191.03;;;15.96;100.00
19783;BME280;10051;40.294;-3.754;2022-10-22T01:39:45;94241.91;;;16.33;100.00
19783;BME280;10051;40.294;-3.754;2022-10-22T01:42:12;94191.81;;;15.97;100.00
19783;BME280;10051;40.294;-3.754;2022-10-22T01:44:39;94245.97;;;16.40;100.00
19783;BME280;10051;40.294;-3.754;2022-10-22T01:47:15;94247.06;;;16.39;100.00
19783;BME280;10051;40.294;-3.754;2022-10-22T01:49:54;94249.72;;;16.39;99.70
19783;BME280;10051;40.294;-3.754;2022-10-22T01:52:44;94239.41;;;16.28;100.00
19783;BME280;10051;40.294;-3.754;2022-10-22T01:58:23;94253.63;;;16.32;100.00
19783;BME280;10051;40.294;-3.754;2022-10-22T02:01:10;94225.84;;;16.12;100.00
19783;BME280;10051;40.294;-3.754;2022-10-22T02:03:43;94240.97;;;16.29;100.00
19783;BME280;10051;40.294;-3.754;2022-10-22T02:06:16;94225.97;;;16.16;100.00
19783;BME280;10051;40.294;-3.754;2022-10-22T02:08:44;94251.59;;;16.29;100.00
19783;BME280;10051;40.294;-3.754;2022-10-22T02:11:12;94242.06;;;16.28;100.00
19783;BME280;10051;40.294;-3.754;2022-10-22T02:13:42;94208.66;;;16.01;100.00
19783;BME280;10051;40.294;-3.754;2022-10-22T02:16:16;94225.38;;;16.10;100.00
19783;BME280;10051;40.294;-3.754;2022-10-22T02:18:44;94244.09;;;16.23;100.00
19783;BME280;10051;40.294;-3.754;2022-10-22T02:21:10;94197.59;;;15.90;99.27
19783;BME280;10051;40.294;-3.754;2022-10-22T02:23:36;94181.47;;;15.77;98.45
19783;BME280;10051;40.294;-3.754;2022-10-22T02:26:15;94164.31;;;15.57;98.40
19783;BME280;10051;40.294;-3.754;2022-10-22T02:31:40;94169.63;;;15.75;97.43
19783;BME280;10051;40.294;-3.754;2022-10-22T02:34:10;94171.66;;;15.78;97.43
19783;BME280;10051;40.294;-3.754;2022-10-22T02:36:39;94200.09;;;15.95;98.17
19783;BME280;10051;40.294;-3.754;2022-10-22T02:39:06;94235.97;;;16.19;98.47
19783;BME280;10051;40.294;-3.754;2022-10-22T02:41:33;94203.81;;;16.03;97.97
19783;BME280;10051;40.294;-3.754;2022-10-22T02:43:59;94168.41;;;15.81;97.08
19783;BME280;10051;40.294;-3.754;2022-10-22T02:46:26;94209.31;;;16.07;97.05
19783;BME280;10051;40.294;-3.754;2022-10-22T02:48:52;94199.47;;;15.98;97.47
19783;BME280;10051;40.294;-3.754;2022-10-22T02:51:17;94214.75;;;16.19;96.53
19783;BME280;10051;40.294;-3.754;2022-10-22T02:53:43;94147.63;;;15.74;96.96
19783;BME280;10051;40.294;-3.754;2022-10-22T02:56:08;94191.97;;;16.09;96.13
19783;BME280;10051;40.294;-3.754;2022-10-22T02:58:34;94176.69;;;15.88;96.38
19783;BME280;10051;40.294;-3.754;2022-10-22T03:00:59;94177.13;;;15.90;96.08
19783;BME280;10051;40.294;-3.754;2022-10-22T03:03:25;94199.78;;;16.05;95.09
19783;BME280;10051;40.294;-3.754;2022-10-22T03:05:50;94219.75;;;16.12;95.44
19783;BME280;10051;40.294;-3.754;2022-10-22T03:08:16;94162.78;;;15.65;95.46
19783;BME280;10051;40.294;-3.754;2022-10-22T03:10:42;94218.50;;;16.00;93.94
19783;BME280;10051;40.294;-3.754;2022-10-22T03:13:07;94223.34;;;15.98;93.23
19783;BME280;10051;40.294;-3.754;2022-10-22T03:15:33;94167.28;;;15.73;93.06
19783;BME280;10051;40.294;-3.754;2022-10-22T03:17:58;94142.34;;;15.57;93.63
19783;BME280;10051;40.294;-3.754;2022-10-22T03:20:24;94173.53;;;15.77;94.44
19783;BME280;10051;40.294;-3.754;2022-10-22T03:22:49;94178.69;;;15.83;92.78
19783;BME280;10051;40.294;-3.754;2022-10-22T03:25:18;94120.03;;;15.49;92.96
19783;BME280;10051;40.294;-3.754;2022-10-22T03:27:45;94221.28;;;16.13;92.32
19783;BME280;10051;40.294;-3.754;2022-10-22T03:30:11;94182.59;;;15.85;91.30
19783;BME280;10051;40.294;-3.754;2022-10-22T03:32:37;94139.53;;;15.62;91.52
19783;BME280;10051;40.294;-3.754;2022-10-22T03:35:03;94187.31;;;15.88;91.96
19783;BME280;10051;40.294;-3.754;2022-10-22T03:37:30;94200.41;;;16.02;91.33
19783;BME280;10051;40.294;-3.754;2022-10-22T03:39:56;94187.25;;;15.80;90.66
19783;BME280;10051;40.294;-3.754;2022-10-22T03:42:22;94210.53;;;15.91;91.03
19783;BME280;10051;40.294;-3.754;2022-10-22T03:44:48;94189.09;;;15.70;91.27
19783;BME280;10051;40.294;-3.754;2022-10-22T03:47:13;94186.63;;;15.65;91.76
19783;BME280;10051;40.294;-3.754;2022-10-22T03:49:39;94195.97;;;15.71;91.85
19783;BME280;10051;40.294;-3.754;2022-10-22T03:52:11;94165.72;;;15.55;91.72
19783;BME280;10051;40.294;-3.754;2022-10-22T03:54:37;94210.81;;;15.81;92.74
19783;BME280;10051;40.294;-3.754;2022-10-22T03:57:04;94221.25;;;15.77;93.72
19783;BME280;10051;40.294;-3.754;2022-10-22T03:59:47;94174.09;;;15.39;93.78
19783;BME280;10051;40.294;-3.754;2022-10-22T04:02:15;94182.53;;;15.50;94.55
19783;BME280;10051;40.294;-3.754;2022-10-22T04:04:41;94195.94;;;15.54;94.30
19783;BME280;10051;40.294;-3.754;2022-10-22T04:07:06;94182.84;;;15.49;94.22
19783;BME280;10051;40.294;-3.754;2022-10-22T04:09:33;94193.78;;;15.56;95.08
19783;BME280;10051;40.294;-3.754;2022-10-22T04:11:58;94212.19;;;15.61;94.58
19783;BME280;10051;40.294;-3.754;2022-10-22T04:14:24;94146.00;;;15.21;94.23
19783;BME280;10051;40.294;-3.754;2022-10-22T04:16:50;94230.91;;;15.73;94.12
19783;BME280;10051;40.294;-3.754;2022-10-22T04:19:15;94244.19;;;15.82;94.27
19783;BME280;10051;40.294;-3.754;2022-10-22T04:21:41;94217.63;;;15.65;94.19
19783;BME280;10051;40.294;-3.754;2022-10-22T04:24:07;94244.63;;;15.75;94.06
19783;BME280;10051;40.294;-3.754;2022-10-22T04:26:32;94215.94;;;15.60;94.49
19783;BME280;10051;40.294;-3.754;2022-10-22T04:28:58;94180.47;;;15.29;94.93
19783;BME280;10051;40.294;-3.754;2022-10-22T04:31:24;94220.56;;;15.54;94.63
19783;BME280;10051;40.294;-3.754;2022-10-22T04:33:54;94203.84;;;15.36;94.09
19783;BME280;10051;40.294;-3.754;2022-10-22T04:36:20;94244.94;;;15.74;93.72
19783;BME280;10051;40.294;-3.754;2022-10-22T04:38:47;94167.19;;;15.21;94.48
19783;BME280;10051;40.294;-3.754;2022-10-22T04:41:18;94250.06;;;15.70;94.61
19783;BME280;10051;40.294;-3.754;2022-10-22T04:43:45;94218.38;;;15.48;94.80
19783;BME280;10051;40.294;-3.754;2022-10-22T04:46:12;94255.38;;;15.70;95.50
19783;BME280;10051;40.294;-3.754;2022-10-22T04:48:39;94236.50;;;15.63;95.56
19783;BME280;10051;40.294;-3.754;2022-10-22T04:51:05;94252.72;;;15.70;94.69
19783;BME280;10051;40.294;-3.754;2022-10-22T04:53:32;94248.81;;;15.68;94.27
19783;BME280;10051;40.294;-3.754;2022-10-22T04:56:14;94233.00;;;15.36;94.74
19783;BME280;10051;40.294;-3.754;2022-10-22T04:58:41;94255.75;;;15.37;97.30
19783;BME280;10051;40.294;-3.754;2022-10-22T05:01:16;94240.91;;;15.27;98.24
19783;BME280;10051;40.294;-3.754;2022-10-22T05:03:42;94244.50;;;15.31;97.89
19783;BME280;10051;40.294;-3.754;2022-10-22T05:06:09;94227.66;;;15.19;97.73
19783;BME280;10051;40.294;-3.754;2022-10-22T05:08:35;94227.16;;;15.16;97.99
19783;BME280;10051;40.294;-3.754;2022-10-22T05:11:00;94235.63;;;15.27;98.59
19783;BME280;10051;40.294;-3.754;2022-10-22T05:13:26;94212.03;;;15.17;97.47
19783;BME280;10051;40.294;-3.754;2022-10-22T05:15:51;94225.47;;;15.21;97.46
19783;BME280;10051;40.294;-3.754;2022-10-22T05:18:17;94243.94;;;15.43;97.30
19783;BME280;10051;40.294;-3.754;2022-10-22T05:20:42;94219.22;;;15.16;97.59
19783;BME280;10051;40.294;-3.754;2022-10-22T05:23:08;94209.84;;;15.10;97.17
19783;BME280;10051;40.294;-3.754;2022-10-22T05:25:37;94237.66;;;15.30;95.99
19783;BME280;10051;40.294;-3.754;2022-10-22T05:28:03;94233.44;;;15.29;95.69
19783;BME280;10051;40.294;-3.754;2022-10-22T05:30:29;94230.00;;;15.29;95.55
19783;BME280;10051;40.294;-3.754;2022-10-22T05:32:54;94252.97;;;15.42;96.34
19783;BME280;10051;40.294;-3.754;2022-10-22T05:35:20;94210.19;;;15.18;95.89
19783;BME280;10051;40.294;-3.754;2022-10-22T05:37:45;94229.38;;;15.23;96.33
19783;BME280;10051;40.294;-3.754;2022-10-22T05:40:11;94197.19;;;14.98;96.13
19783;BME280;10051;40.294;-3.754;2022-10-22T05:42:36;94101.13;;;14.35;96.24
19783;BME280;10051;40.294;-3.754;2022-10-22T05:45:02;94186.41;;;14.95;96.57
19783;BME280;10051;40.294;-3.754;2022-10-22T05:47:29;94259.31;;;15.32;96.73
19783;BME280;10051;40.294;-3.754;2022-10-22T05:49:54;94233.72;;;15.28;95.91
19783;BME280;10051;40.294;-3.754;2022-10-22T05:52:22;94193.09;;;14.92;96.25
19783;BME280;10051;40.294;-3.754;2022-10-22T05:54:48;94204.47;;;14.93;96.44
19783;BME280;10051;40.294;-3.754;2022-10-22T05:57:14;94194.47;;;14.90;96.21
19783;BME280;10051;40.294;-3.754;2022-10-22T05:59:39;94252.88;;;15.25;96.30
19783;BME280;10051;40.294;-3.754;2022-10-22T06:02:05;94246.97;;;15.28;96.50
19783;BME280;10051;40.294;-3.754;2022-10-22T06:04:30;94236.19;;;15.15;96.13
19783;BME280;10051;40.294;-3.754;2022-10-22T06:06:56;94248.84;;;15.19;96.03
19783;BME280;10051;40.294;-3.754;2022-10-22T06:11:54;94197.72;;;14.86;96.08
19783;BME280;10051;40.294;-3.754;2022-10-22T06:14:20;94211.50;;;14.97;96.56
19783;BME280;10051;40.294;-3.754;2022-10-22T06:16:47;94233.69;;;15.10;95.71
19783;BME280;10051;40.294;-3.754;2022-10-22T06:19:15;94230.84;;;15.07;95.89
19783;BME280;10051;40.294;-3.754;2022-10-22T06:21:40;94247.88;;;15.14;96.04
19783;BME280;10051;40.294;-3.754;2022-10-22T06:24:06;94196.84;;;14.68;96.53
19783;BME280;10051;40.294;-3.754;2022-10-22T06:26:32;94260.28;;;15.05;96.91
19783;BME280;10051;40.294;-3.754;2022-10-22T06:28:58;94174.78;;;14.50;96.85
19783;BME280;10051;40.294;-3.754;2022-10-22T06:31:25;94256.56;;;15.06;97.18
19783;BME280;10051;40.294;-3.754;2022-10-22T06:33:50;94239.56;;;14.98;97.03
19783;BME280;10051;40.294;-3.754;2022-10-22T06:36:18;94257.16;;;15.03;97.34
19783;BME280;10051;40.294;-3.754;2022-10-22T06:38:44;94240.38;;;14.76;98.06
19783;BME280;10051;40.294;-3.754;2022-10-22T06:41:15;94209.50;;;14.49;98.83
19783;BME280;10051;40.294;-3.754;2022-10-22T06:43:41;94245.88;;;14.66;100.00
19783;BME280;10051;40.294;-3.754;2022-10-22T06:46:09;94203.53;;;14.43;100.00
19783;BME280;10051;40.294;-3.754;2022-10-22T06:48:36;94197.72;;;14.32;100.00
19783;BME280;10051;40.294;-3.754;2022-10-22T06:51:07;94219.59;;;14.47;100.00
19783;BME280;10051;40.294;-3.754;2022-10-22T06:53:34;94213.63;;;14.41;100.00
19783;BME280;10051;40.294;-3.754;2022-10-22T06:56:07;94263.00;;;14.68;100.00
19783;BME280;10051;40.294;-3.754;2022-10-22T06:58:33;94221.09;;;14.39;100.00
19783;BME280;10051;40.294;-3.754;2022-10-22T07:01:07;94255.59;;;14.56;100.00
19783;BME280;10051;40.294;-3.754;2022-10-22T07:03:33;94240.69;;;14.61;100.00
19783;BME280;10051;40.294;-3.754;2022-10-22T07:05:59;94268.72;;;14.84;100.00
19783;BME280;10051;40.294;-3.754;2022-10-22T07:08:25;94248.44;;;14.71;100.00
19783;BME280;10051;40.294;-3.754;2022-10-22T07:10:50;94269.56;;;14.94;100.00
19783;BME280;10051;40.294;-3.754;2022-10-22T07:13:16;94219.69;;;14.64;100.00
19783;BME280;10051;40.294;-3.754;2022-10-22T07:15:41;94279.19;;;15.12;100.00
19783;BME280;10051;40.294;-3.754;2022-10-22T07:18:07;94278.69;;;15.10;100.00
19783;BME280;10051;40.294;-3.754;2022-10-22T07:20:32;94242.56;;;14.83;100.00
19783;BME280;10051;40.294;-3.754;2022-10-22T07:22:57;94220.97;;;14.67;100.00
19783;BME280;10051;40.294;-3.754;2022-10-22T07:25:23;94215.09;;;14.70;100.00
19783;BME280;10051;40.294;-3.754;2022-10-22T07:27:48;94296.34;;;15.24;100.00
19783;BME280;10051;40.294;-3.754;2022-10-22T07:30:14;94262.09;;;14.96;100.00
19783;BME280;10051;40.294;-3.754;2022-10-22T07:32:39;94284.59;;;15.07;100.00
19783;BME280;10051;40.294;-3.754;2022-10-22T07:35:05;94281.97;;;15.16;100.00
19783;BME280;10051;40.294;-3.754;2022-10-22T07:37:31;94297.63;;;15.26;100.00
19783;BME280;10051;40.294;-3.754;2022-10-22T07:39:56;94243.53;;;14.87;100.00
19783;BME280;10051;40.294;-3.754;2022-10-22T07:42:22;94269.97;;;15.10;100.00
19783;BME280;10051;40.294;-3.754;2022-10-22T07:44:47;94265.13;;;15.12;100.00
19783;BME280;10051;40.294;-3.754;2022-10-22T07:47:12;94262.19;;;15.13;100.00
19783;BME280;10051;40.294;-3.754;2022-10-22T07:49:38;94253.91;;;15.06;100.00
19783;BME280;10051;40.294;-3.754;2022-10-22T07:52:05;94324.53;;;15.51;100.00
19783;BME280;10051;40.294;-3.754;2022-10-22T07:54:30;94295.19;;;15.39;100.00
19783;BME280;10051;40.294;-3.754;2022-10-22T07:56:56;94257.88;;;15.18;100.00
19783;BME280;10051;40.294;-3.754;2022-10-22T07:59:21;94323.19;;;15.71;100.00
19783;BME280;10051;40.294;-3.754;2022-10-22T08:01:46;94315.72;;;15.73;100.00
19783;BME280;10051;40.294;-3.754;2022-10-22T08:04:12;94284.16;;;15.54;100.00
19783;BME280;10051;40.294;-3.754;2022-10-22T08:06:37;94324.59;;;15.69;100.00
19783;BME280;10051;40.294;-3.754;2022-10-22T08:09:03;94226.34;;;15.07;100.00
19783;BME280;10051;40.294;-3.754;2022-10-22T08:11:29;94329.44;;;15.75;100.00
19783;BME280;10051;40.294;-3.754;2022-10-22T08:13:55;94297.25;;;15.51;100.00
19783;BME280;10051;40.294;-3.754;2022-10-22T08:16:20;94273.41;;;15.51;100.00
19783;BME280;10051;40.294;-3.754;2022-10-22T08:18:46;94351.09;;;16.00;100.00
19783;BME280;10051;40.294;-3.754;2022-10-22T08:21:11;94347.22;;;16.07;100.00
19783;BME280;10051;40.294;-3.754;2022-10-22T08:23:37;94321.66;;;16.11;100.00
19783;BME280;10051;40.294;-3.754;2022-10-22T08:26:03;94275.00;;;16.10;98.91
19783;BME280;10051;40.294;-3.754;2022-10-22T08:28:29;94302.63;;;16.53;97.50
19783;BME280;10051;40.294;-3.754;2022-10-22T08:31:00;94289.19;;;16.67;96.96
19783;BME280;10051;40.294;-3.754;2022-10-22T08:33:25;94330.88;;;17.10;94.81
19783;BME280;10051;40.294;-3.754;2022-10-22T08:35:51;94326.66;;;17.18;92.37
19783;BME280;10051;40.294;-3.754;2022-10-22T08:38:17;94341.16;;;17.38;90.72
19783;BME280;10051;40.294;-3.754;2022-10-22T08:40:47;94307.22;;;17.26;90.20
19783;BME280;10051;40.294;-3.754;2022-10-22T08:48:50;94320.03;;;17.80;86.08
19783;BME280;10051;40.294;-3.754;2022-10-22T08:51:26;94350.13;;;18.02;86.38
19783;BME280;10051;40.294;-3.754;2022-10-22T08:56:53;94321.44;;;17.78;86.37
19783;BME280;10051;40.294;-3.754;2022-10-22T08:59:55;94346.00;;;17.83;86.77
19783;BME280;10051;40.294;-3.754;2022-10-22T09:08:04;94347.31;;;17.60;88.62
19783;BME280;10051;40.294;-3.754;2022-10-22T09:10:35;94340.44;;;17.59;88.82
19783;BME280;10051;40.294;-3.754;2022-10-22T09:13:02;94339.03;;;17.61;89.05
19783;BME280;10051;40.294;-3.754;2022-10-22T09:15:28;94300.47;;;17.37;89.58
19783;BME280;10051;40.294;-3.754;2022-10-22T09:25:35;94336.63;;;17.77;86.45
19783;BME280;10051;40.294;-3.754;2022-10-22T09:28:02;94284.16;;;17.57;86.11
19783;BME280;10051;40.294;-3.754;2022-10-22T09:30:32;94283.16;;;17.70;84.83
19783;BME280;10051;40.294;-3.754;2022-10-22T09:35:58;94328.69;;;18.07;84.09
19783;BME280;10051;40.294;-3.754;2022-10-22T09:38:30;94309.47;;;17.93;84.72
19783;BME280;10051;40.294;-3.754;2022-10-22T09:40:58;94325.72;;;18.09;85.08
19783;BME280;10051;40.294;-3.754;2022-10-22T09:43:24;94281.25;;;18.09;85.31
19783;BME280;10051;40.294;-3.754;2022-10-22T09:46:04;94316.13;;;18.38;82.95
19783;BME280;10051;40.294;-3.754;2022-10-22T09:48:36;94320.66;;;18.37;83.28
19783;BME280;10051;40.294;-3.754;2022-10-22T09:51:19;94318.25;;;18.45;83.27
19783;BME280;10051;40.294;-3.754;2022-10-22T09:53:58;94291.25;;;18.12;81.76
19783;BME280;10051;40.294;-3.754;2022-10-22T09:58:57;94324.19;;;18.29;81.17
19783;BME280;10051;40.294;-3.754;2022-10-22T10:01:31;94340.34;;;18.24;82.35
19783;BME280;10051;40.294;-3.754;2022-10-22T10:04:02;94326.38;;;18.27;83.60
19783;BME280;10051;40.294;-3.754;2022-10-22T10:06:30;94332.84;;;18.17;82.94
19783;BME280;10051;40.294;-3.754;2022-10-22T10:08:56;94224.25;;;17.59;82.16
19783;BME280;10051;40.294;-3.754;2022-10-22T10:14:09;94314.03;;;18.22;83.45
19783;BME280;10051;40.294;-3.754;2022-10-22T10:21:54;94279.59;;;18.81;78.44
19783;BME280;10051;40.294;-3.754;2022-10-22T10:27:46;94294.84;;;19.14;75.57
19783;BME280;10051;40.294;-3.754;2022-10-22T10:30:20;94303.59;;;19.14;73.96
19783;BME280;10051;40.294;-3.754;2022-10-22T10:35:33;94300.47;;;19.12;75.14
19783;BME280;10051;40.294;-3.754;2022-10-22T10:40:56;94229.09;;;19.18;70.75
19783;BME280;10051;40.294;-3.754;2022-10-22T10:43:37;94290.56;;;19.71;69.46
19783;BME280;10051;40.294;-3.754;2022-10-22T10:46:21;94285.34;;;19.87;69.90
19783;BME280;10051;40.294;-3.754;2022-10-22T10:48:58;94278.13;;;20.00;68.81
19783;BME280;10051;40.294;-3.754;2022-10-22T10:57:28;94257.09;;;20.52;64.73
19783;BME280;10051;40.294;-3.754;2022-10-22T11:07:44;94256.34;;;20.39;63.80
19783;BME280;10051;40.294;-3.754;2022-10-22T11:13:00;94198.84;;;20.01;65.45
19783;BME280;10051;40.294;-3.754;2022-10-22T11:15:31;94252.13;;;20.38;65.80
19783;BME280;10051;40.294;-3.754;2022-10-22T11:18:19;94259.56;;;20.73;64.16
19783;BME280;10051;40.294;-3.754;2022-10-22T11:20:56;94165.38;;;20.32;64.90
19783;BME280;10051;40.294;-3.754;2022-10-22T11:23:40;94212.81;;;20.79;63.67
19783;BME280;10051;40.294;-3.754;2022-10-22T11:26:12;94191.00;;;20.77;64.39
19783;BME280;10051;40.294;-3.754;2022-10-22T11:28:44;94218.97;;;20.96;64.57
19783;BME280;10051;40.294;-3.754;2022-10-22T11:31:16;94163.13;;;20.62;64.26
19783;BME280;10051;40.294;-3.754;2022-10-22T11:33:51;94226.56;;;20.94;63.84
19783;BME280;10051;40.294;-3.754;2022-10-22T11:36:21;94176.97;;;20.80;62.39
19783;BME280;10051;40.294;-3.754;2022-10-22T11:38:48;94167.19;;;20.72;59.59
19783;BME280;10051;40.294;-3.754;2022-10-22T11:41:18;94220.69;;;21.20;59.29
19783;BME280;10051;40.294;-3.754;2022-10-22T11:44:09;94215.44;;;21.08;57.88
19783;BME280;10051;40.294;-3.754;2022-10-22T11:46:43;94209.66;;;20.90;58.07
19783;BME280;10051;40.294;-3.754;2022-10-22T11:51:38;94154.94;;;20.71;58.18
19783;BME280;10051;40.294;-3.754;2022-10-22T11:54:39;94189.03;;;21.06;57.85
19783;BME280;10051;40.294;-3.754;2022-10-22T11:59:46;94165.13;;;21.46;57.42
19783;BME280;10051;40.294;-3.754;2022-10-22T12:05:06;94089.41;;;21.25;56.23
19783;BME280;10051;40.294;-3.754;2022-10-22T12:07:54;94165.28;;;21.69;57.24
19783;BME280;10051;40.294;-3.754;2022-10-22T12:10:25;94154.53;;;21.33;58.65
19783;BME280;10051;40.294;-3.754;2022-10-22T12:13:10;94112.75;;;21.09;57.15
19783;BME280;10051;40.294;-3.754;2022-10-22T12:15:46;94132.28;;;21.29;56.84
19783;BME280;10051;40.294;-3.754;2022-10-22T12:18:12;94087.53;;;21.26;56.76
19783;BME280;10051;40.294;-3.754;2022-10-22T12:20:38;94109.28;;;21.60;57.18
19783;BME280;10051;40.294;-3.754;2022-10-22T12:23:04;94106.06;;;21.90;56.05
19783;BME280;10051;40.294;-3.754;2022-10-22T12:25:32;94091.00;;;22.02;56.11
19783;BME280;10051;40.294;-3.754;2022-10-22T12:27:58;94062.13;;;21.91;53.28
19783;BME280;10051;40.294;-3.754;2022-10-22T12:30:35;94071.16;;;22.03;53.29
19783;BME280;10051;40.294;-3.754;2022-10-22T12:33:06;94080.63;;;22.20;54.21
19783;BME280;10051;40.294;-3.754;2022-10-22T12:35:33;94062.34;;;22.02;52.31
19783;BME280;10051;40.294;-3.754;2022-10-22T12:38:14;94051.56;;;21.98;53.43
19783;BME280;10051;40.294;-3.754;2022-10-22T12:40:40;94080.34;;;22.25;52.29
19783;BME280;10051;40.294;-3.754;2022-10-22T12:43:27;94048.53;;;22.00;50.90
19783;BME280;10051;40.294;-3.754;2022-10-22T12:45:54;94024.03;;;21.98;49.85
19783;BME280;10051;40.294;-3.754;2022-10-22T12:48:29;94055.13;;;22.26;50.66
19783;BME280;10051;40.294;-3.754;2022-10-22T12:50:59;94069.38;;;22.53;50.55
19783;BME280;10051;40.294;-3.754;2022-10-22T12:53:32;94053.38;;;22.57;51.01
19783;BME280;10051;40.294;-3.754;2022-10-22T12:56:06;94034.72;;;22.41;51.47
19783;BME280;10051;40.294;-3.754;2022-10-22T12:58:40;94047.25;;;22.56;52.18
19783;BME280;10051;40.294;-3.754;2022-10-22T13:01:09;93998.53;;;22.27;51.43
19783;BME280;10051;40.294;-3.754;2022-10-22T13:03:40;93968.06;;;22.12;52.08
19783;BME280;10051;40.294;-3.754;2022-10-22T13:08:42;93947.06;;;22.14;52.51
19783;BME280;10051;40.294;-3.754;2022-10-22T13:11:09;94035.81;;;22.60;52.26
19783;BME280;10051;40.294;-3.754;2022-10-22T13:16:21;94030.50;;;22.63;52.21
19783;BME280;10051;40.294;-3.754;2022-10-22T13:18:52;94024.00;;;22.64;52.75
19783;BME280;10051;40.294;-3.754;2022-10-22T13:21:22;94027.28;;;22.77;51.83
19783;BME280;10051;40.294;-3.754;2022-10-22T13:24:02;94026.06;;;22.71;52.98
19783;BME280;10051;40.294;-3.754;2022-10-22T13:26:31;94015.41;;;22.78;53.00
19783;BME280;10051;40.294;-3.754;2022-10-22T13:28:58;93968.28;;;22.27;53.29
19783;BME280;10051;40.294;-3.754;2022-10-22T13:31:27;93950.09;;;22.13;53.85
19783;BME280;10051;40.294;-3.754;2022-10-22T13:33:59;93957.59;;;22.04;54.36
19783;BME280;10051;40.294;-3.754;2022-10-22T13:36:26;93912.75;;;21.74;54.69
19783;BME280;10051;40.294;-3.754;2022-10-22T13:38:52;93903.03;;;21.46;55.87
19783;BME280;10051;40.294;-3.754;2022-10-22T13:41:22;93931.66;;;21.65;56.15
19783;BME280;10051;40.294;-3.754;2022-10-22T13:43:48;93959.25;;;21.89;56.05
19783;BME280;10051;40.294;-3.754;2022-10-22T13:46:14;93896.84;;;21.42;56.49
19783;BME280;10051;40.294;-3.754;2022-10-22T13:48:40;93957.88;;;21.98;55.23
19783;BME280;10051;40.294;-3.754;2022-10-22T13:51:38;93931.94;;;21.79;55.41
19783;BME280;10051;40.294;-3.754;2022-10-22T13:54:09;93887.91;;;21.53;55.39
19783;BME280;10051;40.294;-3.754;2022-10-22T13:56:38;93888.94;;;21.68;55.32
19783;BME280;10051;40.294;-3.754;2022-10-22T13:59:04;93879.09;;;21.73;54.52
19783;BME280;10051;40.294;-3.754;2022-10-22T14:01:29;93814.56;;;21.54;53.86
19783;BME280;10051;40.294;-3.754;2022-10-22T14:03:57;93907.31;;;22.17;54.73
19783;BME280;10051;40.294;-3.754;2022-10-22T14:06:29;93916.75;;;22.34;53.98
19783;BME280;10051;40.294;-3.754;2022-10-22T14:09:04;93867.59;;;21.95;54.48
19783;BME280;10051;40.294;-3.754;2022-10-22T14:11:33;93908.84;;;22.18;54.72
19783;BME280;10051;40.294;-3.754;2022-10-22T14:14:00;93885.50;;;21.91;55.87
19783;BME280;10051;40.294;-3.754;2022-10-22T14:16:28;93836.41;;;21.60;55.90
19783;BME280;10051;40.294;-3.754;2022-10-22T14:18:57;93821.09;;;21.57;56.34
19783;BME280;10051;40.294;-3.754;2022-10-22T14:21:23;93812.50;;;21.48;56.24
19783;BME280;10051;40.294;-3.754;2022-10-22T14:23:48;93867.78;;;21.83;57.09
19783;BME280;10051;40.294;-3.754;2022-10-22T14:26:28;93883.44;;;22.04;56.75
19783;BME280;10051;40.294;-3.754;2022-10-22T14:28:55;93788.22;;;21.33;57.34
19783;BME280;10051;40.294;-3.754;2022-10-22T14:31:21;93873.63;;;21.89;57.79